Time;durP1;ratioP1;P1;durP2;ratioP2;P2;SDS_P1;SDS_P2;PMS_P1;PMS_P2;Temp;Humidity;BMP_temperature;BMP_pressure;BME280_temperature;BME280_humidity;BME280_pressure;Samples;Min_cycle;Max_cycle;Signal;HPM_P1;HPM_P2
2022/10/26 00:00:23;;;;;;;31.15;13.07;;;;;;;12.34;100.00;99007.63;5174113;27;20114;-62
2022/10/26 00:02:49;;;;;;;35.30;13.85;;;;;;;12.56;100.00;98994.81;5174212;27;20189;-61
2022/10/26 00:05:15;;;;;;;29.65;12.88;;;;;;;12.53;100.00;98999.13;5174041;27;20504;-60
2022/10/26 00:07:42;;;;;;;24.98;14.13;;;;;;;12.57;100.00;99004.66;5174142;27;20046;-61
2022/10/26 00:10:09;;;;;;;27.02;12.98;;;;;;;12.55;100.00;99005.03;5173961;27;20088;-61
2022/10/26 00:12:35;;;;;;;29.92;13.25;;;;;;;12.59;100.00;99000.34;5174392;27;20046;-61
2022/10/26 00:15:01;;;;;;;32.80;15.00;;;;;;;12.64;100.00;99008.25;5174067;27;20061;-61
2022/10/26 00:17:27;;;;;;;33.47;13.38;;;;;;;12.54;100.00;99017.19;5174437;27;20447;-61
2022/10/26 00:19:54;;;;;;;29.77;14.18;;;;;;;12.51;100.00;99015.22;5172861;27;20050;-60
2022/10/26 00:22:20;;;;;;;29.38;13.57;;;;;;;12.59;100.00;99018.78;5173941;27;20050;-61
2022/10/26 00:24:47;;;;;;;31.00;13.38;;;;;;;12.60;100.00;99012.16;5174021;27;20094;-60
2022/10/26 00:27:13;;;;;;;26.60;12.93;;;;;;;12.58;100.00;99017.22;5173778;27;20050;-61
2022/10/26 00:29:39;;;;;;;30.67;13.30;;;;;;;12.50;100.00;99023.84;5173713;27;20527;-60
2022/10/26 00:32:06;;;;;;;25.05;12.80;;;;;;;12.57;100.00;99012.91;5173695;27;20057;-60
2022/10/26 00:34:32;;;;;;;25.30;12.32;;;;;;;12.67;100.00;99012.97;5173984;27;20050;-60
2022/10/26 00:36:58;;;;;;;28.40;12.55;;;;;;;12.67;100.00;99020.44;5173732;27;20057;-60
2022/10/26 00:39:24;;;;;;;33.30;14.07;;;;;;;12.61;100.00;99017.25;5173979;27;20050;-61
2022/10/26 00:41:51;;;;;;;27.67;12.65;;;;;;;12.26;100.00;99023.25;5173873;27;20142;-60
2022/10/26 00:44:56;;;;;;;34.17;13.27;;;;;;;12.60;100.00;99003.91;5173862;27;20050;-60
2022/10/26 00:47:27;;;;;;;28.97;12.10;;;;;;;12.59;100.00;99010.53;5173391;27;20050;-61
2022/10/26 00:49:57;;;;;;;24.98;12.60;;;;;;;12.66;100.00;99008.66;5173532;27;20695;-62
2022/10/26 00:52:24;;;;;;;23.60;12.30;;;;;;;12.70;100.00;99014.19;5173542;27;20046;-60
2022/10/26 00:54:52;;;;;;;23.88;13.00;;;;;;;12.72;100.00;99023.59;5173202;27;20497;-61
2022/10/26 00:57:20;;;;;;;32.92;12.90;;;;;;;12.74;100.00;99016.94;5173452;27;20050;-61
2022/10/26 00:59:48;;;;;;;27.13;12.27;;;;;;;12.72;100.00;99023.59;5173317;27;20505;-61
2022/10/26 01:02:14;;;;;;;35.63;13.55;;;;;;;12.67;100.00;99017.69;5173505;27;20054;-61
2022/10/26 01:04:41;;;;;;;23.23;12.75;;;;;;;12.65;100.00;99014.53;5172980;27;20513;-61
2022/10/26 01:07:08;;;;;;;21.58;12.32;;;;;;;12.77;100.00;99014.22;5173424;27;20530;-60
2022/10/26 01:09:35;;;;;;;22.65;11.93;;;;;;;12.76;100.00;99023.63;5173065;27;20082;-60
2022/10/26 01:12:01;;;;;;;25.02;11.35;;;;;;;12.83;100.00;99029.19;5173378;27;20053;-61
2022/10/26 01:14:29;;;;;;;25.70;11.68;;;;;;;12.74;100.00;99030.72;5172808;27;20055;-60
2022/10/26 01:17:04;;;;;;;22.27;12.07;;;;;;;12.74;100.00;99038.97;5173255;27;20042;-62
2022/10/26 01:20:18;;;;;;;23.13;11.98;;;;;;;12.79;100.00;99038.59;5173169;27;20095;-61
2022/10/26 01:22:51;;;;;;;22.60;12.27;;;;;;;12.72;100.00;99034.59;5173026;27;20046;-61
2022/10/26 01:25:36;;;;;;;21.20;11.15;;;;;;;12.75;100.00;99030.31;5173099;27;20054;-61
2022/10/26 01:28:12;;;;;;;25.75;12.82;;;;;;;12.80;100.00;99026.44;5172991;27;20046;-61
2022/10/26 01:30:43;;;;;;;26.33;12.68;;;;;;;12.82;100.00;99026.81;5172532;27;20092;-61
2022/10/26 01:33:22;;;;;;;28.05;12.68;;;;;;;12.83;100.00;99023.69;5172850;27;20484;-61
2022/10/26 01:35:59;;;;;;;29.17;12.68;;;;;;;12.83;100.00;99023.69;5172870;27;20545;-61
2022/10/26 01:38:31;;;;;;;32.13;12.88;;;;;;;12.80;100.00;99031.94;5172910;27;20096;-61
2022/10/26 01:41:07;;;;;;;28.25;12.73;;;;;;;12.77;100.00;99027.19;5172590;27;20050;-62
2022/10/26 01:43:38;;;;;;;22.92;11.65;;;;;;;12.82;100.00;99024.84;5172939;27;20361;-61
2022/10/26 01:46:07;;;;;;;24.95;12.25;;;;;;;12.81;100.00;99015.03;5172483;27;20483;-60
2022/10/26 01:48:35;;;;;;;24.13;12.73;;;;;;;12.81;100.00;99023.28;5172467;27;20068;-61
2022/10/26 01:51:03;;;;;;;24.75;12.32;;;;;;;12.85;100.00;99026.84;5172412;27;20141;-61
2022/10/26 01:53:30;;;;;;;21.80;12.48;;;;;;;12.83;100.00;99026.44;5172327;27;20053;-61
2022/10/26 01:56:00;;;;;;;26.33;11.77;;;;;;;12.84;100.00;99035.50;5172711;27;20042;-61
2022/10/26 01:58:49;;;;;;;24.88;12.38;;;;;;;12.69;100.00;99029.91;5172286;27;20129;-61
2022/10/26 02:01:41;;;;;;;22.48;11.65;;;;;;;12.83;100.00;99022.88;5172589;27;20046;-61
2022/10/26 02:04:15;;;;;;;23.50;12.73;;;;;;;12.77;100.00;99025.22;5172247;27;20053;-61
2022/10/26 02:06:51;;;;;;;20.98;11.50;;;;;;;12.83;100.00;99026.44;5172245;27;20508;-62
2022/10/26 02:09:26;;;;;;;22.38;11.32;;;;;;;12.82;100.00;99037.81;5172466;27;20057;-60
2022/10/26 02:11:53;;;;;;;20.85;11.52;;;;;;;12.73;100.00;99040.91;5172232;27;20172;-60
2022/10/26 02:14:24;;;;;;;27.23;12.63;;;;;;;12.83;100.00;99042.16;5172334;27;20469;-62
2022/10/26 02:16:55;;;;;;;24.38;12.20;;;;;;;12.81;100.00;99044.50;5172167;27;20463;-60
2022/10/26 02:19:31;;;;;;;25.77;13.23;;;;;;;12.82;100.00;99048.81;5171924;27;20046;-61
2022/10/26 02:22:03;;;;;;;30.50;13.38;;;;;;;12.68;100.00;99050.31;5172467;27;20061;-61
2022/10/26 02:24:33;;;;;;;29.65;13.15;;;;;;;12.80;100.00;99043.72;5172222;27;20050;-61
2022/10/26 02:27:03;;;;;;;28.73;13.00;;;;;;;12.80;100.00;99046.47;5172129;27;20133;-61
2022/10/26 02:29:32;;;;;;;26.25;12.93;;;;;;;12.61;100.00;99055.75;5171745;27;20456;-61
2022/10/26 02:32:01;;;;;;;26.85;13.35;;;;;;;12.65;100.00;99045.56;5172061;27;20042;-60
2022/10/26 02:34:29;;;;;;;23.73;12.88;;;;;;;12.83;100.00;99045.72;5171695;27;20149;-61
2022/10/26 02:37:00;;;;;;;26.80;14.25;;;;;;;12.88;100.00;99061.06;5172028;27;20064;-62
2022/10/26 02:39:31;;;;;;;22.52;13.32;;;;;;;12.82;100.00;99057.06;5171861;27;20046;-61
2022/10/26 02:42:00;;;;;;;32.03;13.90;;;;;;;12.84;100.00;99066.53;5172707;27;20046;-61
2022/10/26 02:44:30;;;;;;;24.00;13.45;;;;;;;12.82;100.00;99071.63;5175469;27;20050;-61
2022/10/26 02:46:57;;;;;;;28.88;13.70;;;;;;;12.82;100.00;99073.59;5175482;27;20046;-60
2022/10/26 02:49:25;;;;;;;29.45;13.60;;;;;;;12.77;100.00;99071.22;5175678;27;20443;-62
2022/10/26 02:52:00;;;;;;;26.42;14.00;;;;;;;12.74;100.00;99058.22;5175146;27;20085;-61
2022/10/26 02:54:32;;;;;;;26.92;12.70;;;;;;;12.48;100.00;99066.25;5175340;27;20057;-61
2022/10/26 02:57:01;;;;;;;23.38;11.45;;;;;;;12.63;100.00;99056.16;5175236;27;20484;-62
2022/10/26 02:59:34;;;;;;;31.05;13.52;;;;;;;12.75;100.00;99059.78;5175502;27;20545;-62
2022/10/26 03:02:00;;;;;;;27.90;13.88;;;;;;;12.75;100.00;99068.81;5175074;27;20054;-60
2022/10/26 03:04:31;;;;;;;24.20;12.77;;;;;;;12.72;100.00;99067.63;5175244;27;20050;-62
2022/10/26 03:06:58;;;;;;;33.05;14.07;;;;;;;12.76;100.00;99072.34;5175330;27;20057;-61
2022/10/26 03:09:25;;;;;;;24.88;13.18;;;;;;;12.69;100.00;99084.91;5175042;27;20102;-60
2022/10/26 03:11:51;;;;;;;26.08;14.05;;;;;;;12.68;100.00;99077.03;5174851;27;20531;-61
2022/10/26 03:14:17;;;;;;;30.48;13.85;;;;;;;12.75;100.00;99079.03;5174796;27;20046;-61
2022/10/26 03:16:43;;;;;;;28.65;13.63;;;;;;;12.76;100.00;99077.84;5175206;27;20051;-61
2022/10/26 03:19:10;;;;;;;28.20;14.18;;;;;;;12.69;100.00;99078.59;5174947;27;20053;-62
2022/10/26 03:21:37;;;;;;;27.25;13.18;;;;;;;12.55;100.00;99076.53;5175225;27;20149;-61
2022/10/26 03:24:03;;;;;;;36.17;15.48;;;;;;;12.71;100.00;99071.53;5174667;27;20056;-61
2022/10/26 03:26:29;;;;;;;31.38;13.77;;;;;;;12.72;100.00;99069.56;5175182;27;20046;-62
2022/10/26 03:28:55;;;;;;;37.72;14.32;;;;;;;12.72;100.00;99075.88;5174893;27;20057;-61
2022/10/26 03:31:22;;;;;;;27.90;14.65;;;;;;;12.68;100.00;99083.31;5175283;27;20056;-61
2022/10/26 03:33:48;;;;;;;32.25;13.40;;;;;;;12.66;100.00;99085.66;5174741;27;20052;-61
2022/10/26 03:36:14;;;;;;;30.95;13.45;;;;;;;12.62;100.00;99090.31;5174730;27;20128;-61
2022/10/26 03:38:41;;;;;;;33.08;13.70;;;;;;;12.66;100.00;99080.16;5174515;27;20519;-60
2022/10/26 03:41:07;;;;;;;33.22;14.23;;;;;;;12.66;100.00;99093.91;5174373;27;20497;-62
2022/10/26 03:43:33;;;;;;;26.20;14.05;;;;;;;12.59;100.00;99085.59;5174504;27;20511;-60
2022/10/26 03:46:00;;;;;;;26.75;14.25;;;;;;;12.56;100.00;99083.63;5174642;27;20061;-61
2022/10/26 03:48:26;;;;;;;26.10;12.30;;;;;;;12.57;100.00;99081.66;5174584;27;20046;-61
2022/10/26 03:50:56;;;;;;;32.33;14.25;;;;;;;12.55;100.00;99082.03;5174430;27;20046;-62
2022/10/26 03:53:22;;;;;;;26.65;13.88;;;;;;;12.59;100.00;99076.53;5174354;27;20048;-62
2022/10/26 03:55:49;;;;;;;27.55;13.75;;;;;;;12.56;100.00;99080.88;5174112;27;20130;-61
2022/10/26 03:58:15;;;;;;;26.70;14.10;;;;;;;12.50;100.00;99085.13;5174558;27;20050;-61
2022/10/26 04:00:41;;;;;;;23.80;12.70;;;;;;;12.52;100.00;99088.28;5174216;27;20133;-62
2022/10/26 04:03:08;;;;;;;24.88;13.07;;;;;;;12.54;100.00;99088.69;5174337;27;20105;-60
2022/10/26 04:05:34;;;;;;;30.77;14.25;;;;;;;12.59;100.00;99093.84;5174116;27;20105;-61
2022/10/26 04:08:02;;;;;;;29.90;14.05;;;;;;;12.61;100.00;99093.47;5173957;27;20046;-62
2022/10/26 04:10:28;;;;;;;26.05;13.50;;;;;;;12.56;100.00;99099.31;5173950;27;20050;-62
2022/10/26 04:12:56;;;;;;;35.92;14.55;;;;;;;12.58;100.00;99097.75;5173951;27;20086;-61
2022/10/26 04:15:22;;;;;;;26.52;13.68;;;;;;;12.60;100.00;99100.16;5173988;27;20046;-61
2022/10/26 04:17:55;;;;;;;32.67;14.50;;;;;;;12.61;100.00;99099.75;5174261;27;20111;-62
2022/10/26 04:20:21;;;;;;;30.23;13.77;;;;;;;12.60;100.00;99098.19;5174343;27;20050;-61
2022/10/26 04:22:47;;;;;;;27.50;14.60;;;;;;;12.57;100.00;99104.44;5173776;27;20068;-62
2022/10/26 04:25:13;;;;;;;30.83;13.55;;;;;;;12.63;100.00;99102.94;5173948;27;20056;-61
2022/10/26 04:27:40;;;;;;;30.75;15.77;;;;;;;12.62;100.00;99098.56;5173886;27;20126;-61
2022/10/26 04:30:08;;;;;;;26.25;14.38;;;;;;;12.55;100.00;99104.00;5173817;27;20054;-61
2022/10/26 04:32:35;;;;;;;26.90;14.98;;;;;;;12.59;100.00;99099.34;5173610;27;20077;-60
2022/10/26 04:35:01;;;;;;;29.95;15.15;;;;;;;12.65;100.00;99105.28;5173459;27;20046;-62
2022/10/26 04:37:27;;;;;;;34.55;14.85;;;;;;;12.63;100.00;99116.69;5173507;27;20046;-61
2022/10/26 04:39:53;;;;;;;30.05;16.27;;;;;;;12.56;100.00;99113.88;5173419;27;21065;-60
2022/10/26 04:42:20;;;;;;;29.05;13.77;;;;;;;12.63;100.00;99118.63;5173592;27;20133;-62
2022/10/26 04:44:46;;;;;;;28.75;14.43;;;;;;;12.29;100.00;99131.66;5173404;27;20057;-61
2022/10/26 04:47:13;;;;;;;25.35;13.95;;;;;;;12.41;100.00;99114.91;5173670;27;20053;-62
2022/10/26 04:49:39;;;;;;;32.00;14.98;;;;;;;12.52;100.00;99102.03;5173644;27;20124;-61
2022/10/26 04:52:05;;;;;;;29.98;13.48;;;;;;;12.43;100.00;99110.59;5173559;27;20046;-60
2022/10/26 04:54:32;;;;;;;28.13;14.13;;;;;;;12.47;100.00;99122.41;5173189;27;20054;-60
2022/10/26 04:56:58;;;;;;;25.10;13.23;;;;;;;12.53;100.00;99124.81;5173257;27;20093;-60
2022/10/26 04:59:24;;;;;;;28.52;15.13;;;;;;;12.45;100.00;99116.50;5173171;27;20050;-59
2022/10/26 05:01:50;;;;;;;25.58;13.05;;;;;;;12.40;100.00;99111.34;5173225;27;20076;-62
2022/10/26 05:04:17;;;;;;;22.88;13.15;;;;;;;12.43;100.00;99098.81;5172536;27;20061;-62
2022/10/26 05:06:44;;;;;;;32.05;15.48;;;;;;;12.39;100.00;99103.47;5172959;27;20133;-61
2022/10/26 05:09:10;;;;;;;25.25;13.30;;;;;;;12.53;100.00;99098.13;5173083;27;20458;-60
2022/10/26 05:11:36;;;;;;;23.92;11.88;;;;;;;12.43;100.00;99110.59;5172966;27;20064;-61
2022/10/26 05:14:02;;;;;;;28.92;12.27;;;;;;;12.48;100.00;99102.00;5173028;27;20050;-56
2022/10/26 05:16:29;;;;;;;21.73;11.50;;;;;;;12.64;100.00;99123.75;5172964;27;20053;-56
2022/10/26 05:18:55;;;;;;;29.20;11.15;;;;;;;12.57;100.00;99137.44;5173154;27;20042;-61
2022/10/26 05:21:22;;;;;;;27.60;12.25;;;;;;;12.51;100.00;99141.69;5172931;27;20503;-54
2022/10/26 05:23:54;;;;;;;22.23;12.00;;;;;;;12.45;100.00;99148.69;5172960;27;20046;-54
2022/10/26 05:26:20;;;;;;;25.67;11.85;;;;;;;12.37;100.00;99150.59;5172756;27;20050;-58
2022/10/26 05:28:47;;;;;;;25.35;12.52;;;;;;;12.38;100.00;99151.38;5172864;27;20046;-61
2022/10/26 05:31:13;;;;;;;29.63;12.90;;;;;;;12.30;100.00;99150.53;5172601;27;20529;-58
2022/10/26 05:33:39;;;;;;;22.05;10.75;;;;;;;12.30;100.00;99144.25;5172400;27;20629;-55
2022/10/26 05:36:06;;;;;;;19.25;11.50;;;;;;;12.38;100.00;99143.94;5172547;27;20054;-57
2022/10/26 05:38:33;;;;;;;21.30;11.85;;;;;;;12.24;100.00;99147.31;5172805;27;20097;-59
2022/10/26 05:41:00;;;;;;;21.92;12.38;;;;;;;12.25;100.00;99153.59;5172543;27;20057;-57
2022/10/26 05:43:27;;;;;;;20.10;11.60;;;;;;;12.35;100.00;99154.88;5172481;27;20141;-58
2022/10/26 05:45:53;;;;;;;26.92;11.50;;;;;;;12.33;100.00;99176.44;5172705;27;20049;-59
2022/10/26 05:48:20;;;;;;;21.73;10.73;;;;;;;12.32;100.00;99191.38;5172430;27;20046;-61
2022/10/26 05:50:48;;;;;;;18.27;10.05;;;;;;;12.34;100.00;99197.28;5172634;27;20098;-57
2022/10/26 05:53:14;;;;;;;21.98;10.65;;;;;;;12.24;100.00;99204.25;5172280;27;20517;-57
2022/10/26 05:55:42;;;;;;;25.80;12.35;;;;;;;12.32;100.00;99196.88;5172345;27;20046;-63
2022/10/26 05:58:10;;;;;;;22.80;10.85;;;;;;;12.28;100.00;99202.31;5172271;27;20057;-64
2022/10/26 06:00:46;;;;;;;17.83;10.23;;;;;;;12.33;100.00;99207.50;5172149;27;20073;-64
2022/10/26 06:03:24;;;;;;;20.25;10.18;;;;;;;12.28;100.00;99210.56;5172405;27;20106;-57
2022/10/26 06:05:53;;;;;;;23.52;10.63;;;;;;;12.30;100.00;99215.72;5172254;27;20046;-56
2022/10/26 06:08:20;;;;;;;21.60;10.93;;;;;;;12.29;100.00;99225.09;5172373;27;20046;-58
2022/10/26 06:10:48;;;;;;;17.90;9.93;;;;;;;12.35;100.00;99220.88;5171928;27;20494;-56
2022/10/26 06:13:15;;;;;;;18.67;9.48;;;;;;;12.22;100.00;99223.06;5172482;27;20492;-57
2022/10/26 06:15:51;;;;;;;22.23;9.90;;;;;;;12.28;100.00;99218.03;5172224;27;20549;-57
2022/10/26 06:18:26;;;;;;;18.98;10.20;;;;;;;12.28;100.00;99242.78;5175133;27;20054;-56
2022/10/26 06:21:10;;;;;;;20.23;10.00;;;;;;;12.31;100.00;99255.78;5175925;27;20134;-58
2022/10/26 06:23:52;;;;;;;23.25;10.45;;;;;;;12.23;100.00;99269.44;5175726;27;20497;-57
2022/10/26 06:26:33;;;;;;;20.25;10.23;;;;;;;12.18;100.00;99275.25;5176059;27;20433;-53
2022/10/26 06:29:12;;;;;;;18.05;9.88;;;;;;;12.01;100.00;99273.84;5175921;27;20050;-57
2022/10/26 06:31:38;;;;;;;20.08;10.23;;;;;;;12.05;100.00;99268.38;5175394;27;20144;-57
2022/10/26 06:34:05;;;;;;;23.23;9.63;;;;;;;11.98;100.00;99269.09;5176204;27;20086;-57
2022/10/26 06:36:33;;;;;;;20.00;10.15;;;;;;;12.04;100.00;99271.53;5175504;27;20121;-56
2022/10/26 06:39:02;;;;;;;18.83;9.73;;;;;;;11.93;100.00;99271.38;5175893;27;20073;-57
2022/10/26 06:41:31;;;;;;;18.95;10.45;;;;;;;12.08;100.00;99275.09;5175354;27;20058;-56
2022/10/26 06:43:58;;;;;;;23.10;10.40;;;;;;;12.22;100.00;99270.56;5175550;27;20054;-56
2022/10/26 06:46:35;;;;;;;18.75;9.68;;;;;;;12.44;100.00;99282.66;5175266;27;20046;-56
2022/10/26 06:49:11;;;;;;;20.15;9.75;;;;;;;13.03;100.00;99287.59;5175323;27;20046;-57
2022/10/26 06:51:43;;;;;;;14.20;8.57;;;;;;;14.20;100.00;99342.09;5175189;27;20050;-57
2022/10/26 06:54:18;;;;;;;14.25;8.13;;;;;;;14.74;100.00;99425.97;5175157;27;20402;-56
2022/10/26 06:56:46;;;;;;;16.25;7.13;;;;;;;15.25;100.00;99438.78;5174913;27;20103;-55
2022/10/26 06:59:17;;;;;;;16.60;7.35;;;;;;;16.03;100.00;99291.63;5175038;27;20053;-57
2022/10/26 07:01:44;;;;;;;13.95;7.13;;;;;;;16.73;100.00;99078.59;5175305;27;20053;-55
2022/10/26 07:04:10;;;;;;;12.05;6.18;;;;;;;16.54;100.00;98805.97;5175415;27;20074;-56
2022/10/26 07:06:36;;;;;;;11.85;7.45;;;;;;;16.15;100.00;98800.88;5175452;27;20438;-57
2022/10/26 07:09:02;;;;;;;16.00;8.00;;;;;;;15.71;100.00;98902.75;5174830;27;20054;-55
2022/10/26 07:11:28;;;;;;;19.15;8.35;;;;;;;15.28;100.00;98988.59;5175193;27;20096;-56
2022/10/26 07:13:56;;;;;;;13.95;7.75;;;;;;;14.97;100.00;99102.69;5174856;27;20463;-54
2022/10/26 07:16:22;;;;;;;12.98;8.00;;;;;;;14.74;100.00;99238.31;5174852;27;20050;-55
2022/10/26 07:18:48;;;;;;;14.32;7.65;;;;;;;14.57;100.00;99275.72;5174786;27;20122;-56
2022/10/26 07:21:15;;;;;;;16.10;7.85;;;;;;;14.48;100.00;99322.91;5174663;27;20129;-58
2022/10/26 07:23:41;;;;;;;14.65;8.02;;;;;;;14.43;100.00;99384.00;5174589;27;20042;-56
2022/10/26 07:26:07;;;;;;;16.83;8.68;;;;;;;14.32;100.00;99438.28;5174410;27;20054;-56
2022/10/26 07:28:35;;;;;;;12.40;7.40;;;;;;;14.20;100.00;99449.63;5173910;27;20134;-56
2022/10/26 07:31:04;;;;;;;21.00;8.57;;;;;;;14.17;100.00;99458.66;5174340;27;20086;-57
2022/10/26 07:33:30;;;;;;;15.93;8.95;;;;;;;14.03;100.00;99478.63;5174924;27;20450;-55
2022/10/26 07:35:58;;;;;;;17.77;13.30;;;;;;;14.00;100.00;99485.69;5174568;27;20137;-55
2022/10/26 07:38:24;;;;;;;22.73;9.18;;;;;;;13.92;100.00;99491.50;5174751;27;20053;-56
2022/10/26 07:40:53;;;;;;;19.23;7.72;;;;;;;13.96;100.00;99487.63;5174511;27;20137;-54
2022/10/26 07:43:20;;;;;;;16.63;7.85;;;;;;;13.94;100.00;99492.72;5174759;27;20058;-55
2022/10/26 07:45:48;;;;;;;16.63;7.97;;;;;;;13.95;100.00;99494.28;5174492;27;20046;-56
2022/10/26 07:48:15;;;;;;;23.25;15.30;;;;;;;13.90;100.00;99491.91;5174663;27;20049;-56
2022/10/26 07:50:41;;;;;;;13.43;9.00;;;;;;;13.94;100.00;99502.97;5174114;27;20050;-56
2022/10/26 07:53:08;;;;;;;12.43;6.78;;;;;;;13.92;100.00;99510.78;5174179;27;20080;-58
2022/10/26 07:55:34;;;;;;;15.07;8.05;;;;;;;13.95;100.00;99512.81;5174014;27;20065;-53
2022/10/26 07:58:00;;;;;;;14.27;6.40;;;;;;;14.43;100.00;99518.34;5174101;27;20098;-58
2022/10/26 08:00:27;;;;;;;15.48;7.65;;;;;;;14.15;100.00;99496.84;5174114;27;20081;-55
2022/10/26 08:02:54;;;;;;;17.90;7.38;;;;;;;14.08;100.00;99492.84;5174344;27;20440;-56
2022/10/26 08:05:21;;;;;;;15.93;9.20;;;;;;;13.97;100.00;99503.00;5174321;27;20072;-56
2022/10/26 08:07:47;;;;;;;21.50;10.68;;;;;;;14.14;100.00;99512.59;5174124;27;20046;-58
2022/10/26 08:10:14;;;;;;;30.17;12.65;;;;;;;13.89;100.00;99509.59;5174186;27;20079;-57
2022/10/26 08:12:41;;;;;;;49.78;20.83;;;;;;;13.79;100.00;99533.09;5173789;27;20534;-58
2022/10/26 08:15:09;;;;;;;17.58;7.95;;;;;;;13.76;100.00;99514.59;5173861;27;20085;-57
2022/10/26 08:17:35;;;;;;;21.52;10.60;;;;;;;13.85;100.00;99503.25;5174059;27;20050;-56
2022/10/26 08:20:01;;;;;;;17.75;8.05;;;;;;;14.11;100.00;99494.84;5173792;27;20070;-57
2022/10/26 08:22:29;;;;;;;20.25;10.20;;;;;;;14.04;100.00;99503.06;5173793;27;20064;-56
2022/10/26 08:24:55;;;;;;;14.48;7.95;;;;;;;14.17;100.00;99500.00;5173917;27;20448;-57
2022/10/26 08:27:22;;;;;;;13.90;8.85;;;;;;;14.48;100.00;99515.22;5173782;27;20497;-55
2022/10/26 08:29:48;;;;;;;17.40;10.15;;;;;;;15.03;100.00;99482.91;5173645;27;20046;-56
2022/10/26 08:32:14;;;;;;;14.18;7.45;;;;;;;15.84;100.00;99403.41;5173657;27;20211;-56
2022/10/26 08:34:40;;;;;;;14.77;6.30;;;;;;;16.76;100.00;99101.94;5173482;27;20053;-56
2022/10/26 08:37:06;;;;;;;8.63;5.28;;;;;;;17.04;100.00;98704.88;5173436;27;20052;-57
2022/10/26 08:39:33;;;;;;;11.55;7.75;;;;;;;16.60;100.00;98535.13;5172293;27;20049;-57
2022/10/26 08:42:05;;;;;;;11.48;7.95;;;;;;;16.52;100.00;98533.66;5173392;27;20058;-53
2022/10/26 08:44:37;;;;;;;14.00;5.30;;;;;;;16.13;100.00;98573.78;5173264;27;20149;-56
2022/10/26 08:47:10;;;;;;;15.07;7.38;;;;;;;16.13;100.00;98837.25;5173471;27;20057;-55
2022/10/26 08:49:44;;;;;;;14.70;6.03;;;;;;;15.93;100.00;98933.81;5173074;27;20130;-54
2022/10/26 08:52:17;;;;;;;7.63;4.60;;;;;;;15.82;100.00;98792.13;5173413;27;20126;-55
2022/10/26 08:54:48;;;;;;;9.98;5.50;;;;;;;15.49;100.00;98793.56;5172876;27;20432;-56
2022/10/26 08:57:21;;;;;;;9.13;4.93;;;;;;;15.30;100.00;98861.19;5173083;27;20053;-57
2022/10/26 08:59:54;;;;;;;5.75;4.30;;;;;;;15.11;100.00;98927.94;5173302;27;20141;-57
2022/10/26 09:02:21;;;;;;;8.80;4.80;;;;;;;15.16;100.00;99046.25;5173156;27;20050;-56
2022/10/26 09:04:47;;;;;;;12.65;5.38;;;;;;;14.89;100.00;99283.28;5173128;27;20058;-55
2022/10/26 09:07:25;;;;;;;10.55;6.20;;;;;;;14.67;100.00;99287.97;5172867;27;20545;-57
2022/10/26 09:10:00;;;;;;;8.52;5.45;;;;;;;14.96;100.00;99248.22;5172973;27;20053;-59
2022/10/26 09:12:40;;;;;;;13.48;7.05;;;;;;;14.91;100.00;99294.72;5172728;27;20046;-57
2022/10/26 09:15:15;;;;;;;15.70;6.97;;;;;;;14.66;100.00;99264.28;5172858;27;20404;-60
2022/10/26 09:17:53;;;;;;;10.35;6.13;;;;;;;14.59;100.00;99342.31;5172916;27;20045;-60
2022/10/26 09:20:39;;;;;;;11.07;6.55;;;;;;;14.46;100.00;99363.91;5172791;27;20052;-61
2022/10/26 09:23:17;;;;;;;9.55;6.38;;;;;;;14.45;100.00;99387.13;5173173;27;20185;-57
2022/10/26 09:25:50;;;;;;;12.98;7.43;;;;;;;14.54;100.00;99420.72;5172786;27;20137;-55
2022/10/26 09:28:18;;;;;;;13.38;6.35;;;;;;;14.74;100.00;99415.72;5172741;27;20049;-57
2022/10/26 09:30:45;;;;;;;12.10;6.70;;;;;;;14.85;100.00;99404.72;5172758;27;20050;-59
2022/10/26 09:33:15;;;;;;;9.82;6.53;;;;;;;14.67;100.00;99432.22;5172568;27;20049;-57
2022/10/26 09:35:48;;;;;;;11.35;6.50;;;;;;;14.62;100.00;99429.81;5172774;27;20413;-54
2022/10/26 09:38:23;;;;;;;11.18;6.00;;;;;;;14.73;100.00;99450.00;5172457;27;20054;-55
2022/10/26 09:40:57;;;;;;;11.63;6.05;;;;;;;14.45;100.00;99444.28;5172331;27;20133;-54
2022/10/26 09:43:29;;;;;;;12.48;6.30;;;;;;;14.55;100.00;99438.84;5172466;27;20412;-56
2022/10/26 09:45:55;;;;;;;9.50;5.93;;;;;;;14.56;100.00;99401.81;5172325;27;20053;-53
2022/10/26 09:48:29;;;;;;;13.30;8.50;;;;;;;14.68;100.00;99416.47;5172449;27;20046;-54
2022/10/26 09:50:58;;;;;;;7.85;5.40;;;;;;;14.83;100.00;99416.16;5172127;27;20068;-54
2022/10/26 09:53:24;;;;;;;6.88;5.30;;;;;;;14.75;100.00;99403.47;5172461;27;20452;-55
2022/10/26 09:56:04;;;;;;;13.38;6.57;;;;;;;14.54;100.00;99459.34;5172239;27;20478;-55
2022/10/26 09:58:36;;;;;;;14.48;6.03;;;;;;;14.55;100.00;99466.44;5172445;27;20042;-59
2022/10/26 10:01:02;;;;;;;12.05;6.75;;;;;;;14.59;100.00;99434.16;5172086;27;20050;-58
2022/10/26 10:03:30;;;;;;;10.35;5.82;;;;;;;14.56;100.00;99431.34;5172331;27;20402;-55
2022/10/26 10:06:15;;;;;;;10.57;5.90;;;;;;;14.50;100.00;99432.91;5172125;27;20050;-59
2022/10/26 10:08:41;;;;;;;8.70;6.65;;;;;;;14.57;100.00;99458.59;5172098;27;20516;-60
2022/10/26 10:11:10;;;;;;;12.38;5.00;;;;;;;14.66;100.00;99458.25;5172117;27;20047;-60
2022/10/26 10:13:38;;;;;;;22.50;6.97;;;;;;;14.71;100.00;99465.38;5172074;27;20054;-59
2022/10/26 10:16:09;;;;;;;12.82;5.88;;;;;;;14.59;100.00;99414.03;5171811;27;20050;-59
2022/10/26 10:18:37;;;;;;;12.60;5.72;;;;;;;14.65;100.00;99403.44;5171919;27;20138;-59
2022/10/26 10:21:05;;;;;;;126.20;17.00;;;;;;;14.52;100.00;99436.06;5172178;27;20046;-60
2022/10/26 10:23:34;;;;;;;242.40;28.80;;;;;;;14.77;100.00;99450.03;5171873;27;20513;-55
2022/10/26 10:26:06;;;;;;;211.10;20.83;;;;;;;14.74;100.00;99440.53;5172059;27;20046;-56
2022/10/26 10:28:34;;;;;;;31.40;7.10;;;;;;;14.81;100.00;99440.56;5171842;27;20085;-57
2022/10/26 10:31:02;;;;;;;126.78;17.42;;;;;;;14.43;100.00;99422.59;5171921;27;20046;-59
2022/10/26 10:33:34;;;;;;;201.70;29.55;;;;;;;14.93;100.00;99439.47;5171951;27;20106;-60
2022/10/26 10:36:01;;;;;;;12.80;5.97;;;;;;;14.89;100.00;99435.88;5171599;27;20085;-56
2022/10/26 10:38:27;;;;;;;9.20;5.50;;;;;;;14.61;100.00;99413.66;5171698;27;20054;-57
2022/10/26 10:40:57;;;;;;;14.98;6.57;;;;;;;14.62;100.00;99418.78;5171681;27;20050;-57
2022/10/26 10:43:25;;;;;;;7.97;5.50;;;;;;;14.79;100.00;99439.38;5171597;27;20046;-56
2022/10/26 10:45:55;;;;;;;13.70;5.40;;;;;;;15.21;100.00;99407.63;5171574;27;20514;-55
2022/10/26 10:48:25;;;;;;;12.05;5.57;;;;;;;15.40;100.00;99354.00;5171877;27;20489;-53
2022/10/26 10:50:54;;;;;;;12.50;5.95;;;;;;;15.63;100.00;99317.69;5171231;27;20062;-56
2022/10/26 10:53:25;;;;;;;14.23;6.45;;;;;;;15.32;100.00;99252.97;5171621;27;20046;-59
2022/10/26 10:56:10;;;;;;;22.40;8.82;;;;;;;14.99;100.00;99238.34;5171636;27;20050;-58
2022/10/26 10:58:44;;;;;;;8.50;5.00;;;;;;;15.23;100.00;99182.34;5171347;27;20046;-57
2022/10/26 11:01:14;;;;;;;9.95;5.45;;;;;;;15.06;100.00;99183.94;5171377;27;20057;-56
2022/10/26 11:03:52;;;;;;;12.88;8.20;;;;;;;14.93;100.00;99290.41;5172966;27;20099;-55
2022/10/26 11:06:20;;;;;;;15.80;6.25;;;;;;;14.74;100.00;99334.88;5175125;27;20053;-54
2022/10/26 11:08:53;;;;;;;9.43;6.40;;;;;;;14.47;100.00;99414.34;5174786;27;20046;-56
2022/10/26 11:11:25;;;;;;;11.63;6.15;;;;;;;14.73;100.00;99455.53;5174827;27;20082;-54
2022/10/26 11:13:56;;;;;;;9.82;6.78;;;;;;;14.83;100.00;99484.38;5174692;27;20424;-56
2022/10/26 11:16:30;;;;;;;13.02;5.90;;;;;;;14.75;100.00;99491.78;5174896;27;20406;-57
2022/10/26 11:19:02;;;;;;;13.55;6.00;;;;;;;14.70;100.00;99475.63;5175189;27;20048;-55
2022/10/26 11:21:29;;;;;;;14.35;5.47;;;;;;;14.58;100.00;99459.38;5174798;27;20137;-56